createdAt,value
2018-05-26T00:00:12.622Z,14.27
2018-05-26T00:02:40.146Z,14.28
2018-05-26T00:05:07.741Z,14.21
2018-05-26T00:07:35.374Z,14.22
2018-05-26T00:10:03.177Z,14.25
2018-05-26T00:12:30.709Z,14.27
2018-05-26T00:14:58.381Z,14.33
2018-05-26T00:17:25.960Z,14.38
2018-05-26T00:19:53.448Z,14.51
2018-05-26T00:22:21.032Z,14.54
2018-05-26T00:24:48.546Z,14.54
2018-05-26T00:27:16.144Z,14.49
2018-05-26T00:29:44.043Z,14.43
2018-05-26T00:32:11.537Z,14.43
2018-05-26T00:34:39.208Z,14.35
2018-05-26T00:37:06.692Z,14.27
2018-05-26T00:39:34.176Z,14.26
2018-05-26T00:42:01.994Z,14.21
2018-05-26T00:44:29.613Z,14.28
2018-05-26T00:46:57.102Z,14.21
2018-05-26T00:49:24.957Z,14.13
2018-05-26T00:51:52.607Z,14.10
2018-05-26T00:54:20.267Z,14.05
2018-05-26T00:56:47.887Z,14.10
2018-05-26T00:59:15.387Z,14.07
2018-05-26T01:01:42.839Z,14.09
2018-05-26T01:04:10.777Z,14.13
2018-05-26T01:06:38.301Z,14.21
2018-05-26T01:09:05.762Z,14.15
2018-05-26T01:11:33.477Z,14.03
2018-05-26T01:14:01.027Z,13.96
2018-05-26T01:16:28.531Z,13.91
2018-05-26T01:18:56.152Z,13.90
2018-05-26T01:21:23.607Z,13.90
2018-05-26T01:23:51.428Z,13.96
2018-05-26T01:26:19.072Z,13.88
2018-05-26T01:28:46.656Z,13.89
2018-05-26T01:31:14.383Z,13.88
2018-05-26T01:33:42.081Z,13.85
2018-05-26T01:36:09.732Z,13.73
2018-05-26T01:38:37.292Z,13.64
2018-05-26T01:41:05.152Z,13.63
2018-05-26T01:43:32.803Z,13.62
2018-05-26T01:46:00.487Z,13.64
2018-05-26T01:48:28.358Z,13.61
2018-05-26T01:50:55.882Z,13.50
2018-05-26T01:53:23.543Z,13.44
2018-05-26T01:55:51.163Z,13.43
2018-05-26T01:58:18.798Z,13.39
2018-05-26T02:00:46.427Z,13.34
2018-05-26T02:03:14.207Z,13.29
2018-05-26T02:05:41.748Z,13.24
2018-05-26T02:08:09.498Z,13.23
2018-05-26T02:10:37.215Z,13.25
2018-05-26T02:13:05.777Z,13.28
2018-05-26T02:15:33.269Z,13.18
2018-05-26T02:18:01.198Z,13.17
2018-05-26T02:20:29.341Z,13.17
2018-05-26T02:22:57.794Z,13.21
2018-05-26T02:25:25.367Z,13.23
2018-05-26T02:27:53.008Z,13.12
2018-05-26T02:30:20.619Z,12.99
2018-05-26T02:32:48.067Z,12.96
2018-05-26T02:35:15.833Z,12.92
2018-05-26T02:37:43.473Z,12.92
2018-05-26T02:40:10.946Z,12.91
2018-05-26T02:42:38.673Z,12.91
2018-05-26T02:45:06.626Z,12.88
2018-05-26T02:47:34.254Z,12.94
2018-05-26T02:50:01.727Z,12.95
2018-05-26T02:52:29.215Z,12.95
2018-05-26T02:54:57.061Z,12.97
2018-05-26T02:57:24.650Z,12.96
2018-05-26T02:59:52.279Z,12.92
2018-05-26T03:02:20.052Z,12.86
2018-05-26T03:04:53.027Z,12.83
2018-05-26T03:07:26.327Z,12.79
2018-05-26T03:09:59.576Z,12.68
2018-05-26T03:12:32.641Z,12.59
2018-05-26T03:14:59.843Z,12.54
2018-05-26T03:17:43.414Z,12.55
2018-05-26T03:20:10.971Z,12.59
2018-05-26T03:22:38.425Z,12.63
2018-05-26T03:25:06.142Z,12.62
2018-05-26T03:27:33.724Z,12.54
2018-05-26T03:30:01.398Z,12.48
2018-05-26T03:32:29.213Z,12.46
2018-05-26T03:34:56.667Z,12.46
2018-05-26T03:37:24.166Z,12.53
2018-05-26T03:39:51.987Z,12.48
2018-05-26T03:42:19.431Z,12.46
2018-05-26T03:44:47.127Z,12.45
2018-05-26T03:47:14.852Z,12.52
2018-05-26T03:49:42.447Z,12.55
2018-05-26T03:52:10.014Z,12.53
2018-05-26T03:54:49.388Z,12.54
2018-05-26T03:57:29.034Z,12.56
2018-05-26T04:00:18.118Z,12.53
2018-05-26T04:02:45.633Z,12.54
2018-05-26T04:05:13.323Z,12.56
2018-05-26T04:07:40.854Z,12.56
2018-05-26T04:10:08.592Z,12.65
2018-05-26T04:12:36.204Z,12.71
2018-05-26T04:15:03.751Z,12.84
2018-05-26T04:17:31.262Z,12.95
2018-05-26T04:19:59.205Z,13.04
2018-05-26T04:22:26.703Z,13.09
2018-05-26T04:24:54.327Z,13.14
2018-05-26T04:27:21.952Z,13.25
2018-05-26T04:29:49.541Z,13.38
2018-05-26T04:32:17.129Z,13.46
2018-05-26T04:34:45.009Z,13.55
2018-05-26T04:37:12.688Z,13.63
2018-05-26T04:39:40.346Z,13.63
2018-05-26T04:42:08.238Z,13.68
2018-05-26T04:44:36.112Z,13.77
2018-05-26T04:47:03.549Z,13.89
2018-05-26T04:49:31.052Z,14.01
2018-05-26T04:51:59.403Z,14.10
2018-05-26T04:54:27.249Z,14.19
2018-05-26T04:56:54.926Z,14.25
2018-05-26T04:59:22.507Z,14.36
2018-05-26T05:01:50.403Z,14.46
2018-05-26T05:04:18.222Z,14.59
2018-05-26T05:06:45.898Z,14.64
2018-05-26T05:09:13.428Z,14.78
2018-05-26T05:11:41.008Z,14.87
2018-05-26T05:14:09.407Z,14.96
2018-05-26T05:16:37.253Z,15.10
2018-05-26T05:19:04.840Z,15.24
2018-05-26T05:21:32.972Z,15.50
2018-05-26T05:24:00.769Z,15.75
2018-05-26T05:26:28.269Z,16.03
2018-05-26T05:28:55.755Z,16.41
2018-05-26T05:31:23.552Z,17.25
2018-05-26T05:33:51.031Z,17.75
2018-05-26T05:36:18.709Z,18.23
2018-05-26T05:38:46.266Z,18.43
2018-05-26T05:41:14.029Z,18.38
2018-05-26T05:43:41.244Z,18.31
2018-05-26T05:46:08.965Z,18.10
2018-05-26T05:48:36.045Z,17.99
2018-05-26T05:51:03.727Z,17.95
2018-05-26T05:53:31.999Z,18.16
2018-05-26T05:56:00.129Z,18.62
2018-05-26T05:58:27.688Z,18.78
2018-05-26T06:00:55.217Z,19.34
2018-05-26T06:03:22.977Z,20.28
2018-05-26T06:05:50.577Z,21.60
2018-05-26T06:08:18.460Z,22.66
2018-05-26T06:10:45.998Z,23.47
2018-05-26T06:13:13.513Z,23.61
2018-05-26T06:15:41.200Z,24.72
2018-05-26T06:18:09.421Z,24.81
2018-05-26T06:20:37.568Z,26.35
2018-05-26T06:23:05.176Z,27.16
2018-05-26T06:25:32.238Z,27.94
2018-05-26T06:27:59.545Z,27.51
2018-05-26T06:30:27.398Z,28.05
2018-05-26T06:32:55.009Z,29.05
2018-05-26T06:35:22.898Z,29.39
2018-05-26T06:37:50.641Z,27.28
2018-05-26T06:40:18.159Z,27.94
2018-05-26T06:42:45.925Z,29.04
2018-05-26T06:45:13.917Z,29.65
2018-05-26T06:47:41.579Z,29.76
2018-05-26T06:50:09.205Z,29.36
2018-05-26T06:52:36.798Z,30.03
2018-05-26T06:55:04.524Z,30.03
2018-05-26T06:57:32.060Z,30.91
2018-05-26T06:59:59.668Z,31.48
2018-05-26T07:02:27.676Z,32.44
2018-05-26T07:04:55.504Z,33.28
2018-05-26T07:07:23.179Z,33.14
2018-05-26T07:09:50.695Z,33.56
2018-05-26T07:12:18.349Z,33.74
2018-05-26T07:14:46.169Z,34.29
2018-05-26T07:17:13.910Z,34.58
2018-05-26T07:19:41.569Z,34.76
2018-05-26T07:22:09.189Z,34.76
2018-05-26T07:24:36.807Z,34.99
2018-05-26T07:27:04.406Z,35.13
2018-05-26T07:29:32.689Z,35.52
2018-05-26T07:32:00.268Z,35.56
2018-05-26T07:34:27.774Z,36.28
2018-05-26T07:36:55.247Z,36.87
2018-05-26T07:39:22.969Z,37.16
2018-05-26T07:41:51.544Z,36.37
2018-05-26T07:44:19.105Z,36.26
2018-05-26T07:46:46.720Z,34.77
2018-05-26T07:49:14.257Z,34.67
2018-05-26T07:51:41.705Z,34.67
2018-05-26T07:54:09.345Z,34.84
2018-05-26T07:56:36.876Z,35.22
2018-05-26T07:59:04.780Z,34.89
2018-05-26T08:01:32.429Z,33.71
2018-05-26T08:04:00.154Z,33.70
2018-05-26T08:06:27.836Z,33.65
2018-05-26T08:08:55.344Z,33.68
2018-05-26T08:11:23.281Z,32.99
2018-05-26T08:13:51.623Z,32.66
2018-05-26T08:16:19.118Z,32.31
2018-05-26T08:18:46.623Z,33.34
2018-05-26T08:21:14.175Z,34.57
2018-05-26T08:23:41.704Z,34.56
2018-05-26T08:26:09.444Z,35.54
2018-05-26T08:28:38.348Z,36.01
2018-05-26T08:31:05.985Z,37.85
2018-05-26T08:33:33.760Z,38.60
2018-05-26T08:36:02.066Z,38.74
2018-05-26T08:38:29.525Z,39.31
2018-05-26T08:40:57.016Z,39.00
2018-05-26T08:43:25.402Z,39.23
2018-05-26T08:45:54.182Z,39.24
2018-05-26T08:48:22.349Z,39.76
2018-05-26T08:50:49.824Z,40.12
2018-05-26T08:53:17.377Z,41.14
2018-05-26T08:55:45.027Z,41.79
2018-05-26T08:58:12.559Z,41.52
2018-05-26T09:00:40.110Z,42.08
2018-05-26T09:03:07.561Z,42.39
2018-05-26T09:05:35.118Z,41.77
2018-05-26T09:08:03.197Z,42.18
2018-05-26T09:10:30.676Z,41.38
2018-05-26T09:12:58.147Z,42.40
2018-05-26T09:15:25.946Z,41.23
2018-05-26T09:17:53.556Z,42.24
2018-05-26T09:20:21.021Z,43.02
2018-05-26T09:22:48.756Z,43.58
2018-05-26T09:25:16.263Z,43.33
2018-05-26T09:27:43.800Z,43.12
2018-05-26T09:30:11.620Z,42.44
2018-05-26T09:32:39.155Z,42.26
2018-05-26T09:35:06.819Z,42.83
2018-05-26T09:37:34.540Z,42.12
2018-05-26T09:40:02.051Z,42.61
2018-05-26T09:42:30.152Z,42.34
2018-05-26T09:44:57.790Z,41.51
2018-05-26T09:47:25.512Z,41.72
2018-05-26T09:49:53.055Z,41.29
2018-05-26T09:52:20.666Z,40.59
2018-05-26T09:54:48.323Z,40.59
2018-05-26T09:57:15.996Z,40.50
2018-05-26T09:59:43.996Z,39.73
2018-05-26T10:02:11.693Z,39.17
2018-05-26T10:04:40.162Z,39.33
2018-05-26T10:07:07.661Z,39.33
2018-05-26T10:09:35.216Z,40.03
2018-05-26T10:12:02.841Z,39.30
2018-05-26T10:14:30.358Z,40.32
2018-05-26T10:16:57.993Z,40.18
2018-05-26T10:19:25.551Z,39.91
2018-05-26T10:21:53.147Z,40.25
2018-05-26T10:24:21.472Z,39.56
2018-05-26T10:26:48.958Z,40.91
2018-05-26T10:29:16.466Z,41.44
2018-05-26T10:31:43.947Z,40.21
2018-05-26T10:34:11.637Z,40.82
2018-05-26T10:36:39.500Z,42.41
2018-05-26T10:39:07.081Z,43.48
2018-05-26T10:41:34.773Z,43.30
2018-05-26T10:44:02.415Z,43.47
2018-05-26T10:46:30.371Z,44.84
2018-05-26T10:48:58.016Z,44.71
2018-05-26T10:51:25.804Z,44.59
2018-05-26T10:53:55.251Z,43.94
2018-05-26T10:56:22.810Z,45.30
2018-05-26T10:58:50.385Z,46.01
2018-05-26T11:01:18.172Z,46.03
2018-05-26T11:03:45.893Z,46.27
2018-05-26T11:06:13.464Z,46.70
2018-05-26T11:08:41.346Z,46.21
2018-05-26T11:11:08.952Z,46.84
2018-05-26T11:13:36.583Z,46.77
2018-05-26T11:16:04.185Z,46.98
2018-05-26T11:18:31.712Z,47.79
2018-05-26T11:20:59.356Z,48.09
2018-05-26T11:23:26.970Z,48.42
2018-05-26T11:25:54.495Z,48.04
2018-05-26T11:28:21.980Z,47.56
2018-05-26T11:30:49.743Z,47.67
2018-05-26T11:33:17.341Z,47.97
2018-05-26T11:35:44.867Z,47.33
2018-05-26T11:38:12.493Z,47.49
2018-05-26T11:40:40.114Z,46.99
2018-05-26T11:43:07.694Z,46.66
2018-05-26T11:45:35.618Z,46.42
2018-05-26T11:48:03.181Z,47.22
2018-05-26T11:50:30.802Z,46.82
2018-05-26T11:52:58.657Z,46.33
2018-05-26T11:55:26.261Z,46.59
2018-05-26T11:57:54.360Z,46.44
2018-05-26T12:00:21.858Z,46.11
2018-05-26T12:02:49.640Z,45.21
2018-05-26T12:05:17.157Z,43.23
2018-05-26T12:07:44.836Z,40.67
2018-05-26T12:10:12.386Z,39.15
2018-05-26T12:12:40.376Z,37.32
2018-05-26T12:15:07.963Z,37.57
2018-05-26T12:17:35.621Z,37.69
2018-05-26T12:20:03.168Z,36.55
2018-05-26T12:22:30.728Z,36.60
2018-05-26T12:24:58.441Z,35.97
2018-05-26T12:27:26.016Z,35.63
2018-05-26T12:29:53.217Z,35.69
2018-05-26T12:32:21.069Z,35.81
2018-05-26T12:34:48.633Z,35.43
2018-05-26T12:37:17.108Z,35.61
2018-05-26T12:39:44.583Z,35.19
2018-05-26T12:42:12.100Z,35.11
2018-05-26T12:44:39.572Z,35.36
2018-05-26T12:47:07.362Z,34.99
2018-05-26T12:49:35.400Z,35.22
2018-05-26T12:52:03.061Z,35.05
2018-05-26T12:54:30.537Z,34.77
2018-05-26T12:56:58.107Z,34.90
2018-05-26T12:59:25.623Z,34.79
2018-05-26T13:01:53.266Z,34.94
2018-05-26T13:04:20.898Z,34.93
2018-05-26T13:06:48.409Z,34.46
2018-05-26T13:09:16.086Z,34.55
2018-05-26T13:11:43.756Z,34.19
2018-05-26T13:14:11.365Z,34.30
2018-05-26T13:16:39.162Z,34.04
2018-05-26T13:19:07.197Z,33.63
2018-05-26T13:21:34.697Z,33.32
2018-05-26T13:24:02.440Z,33.69
2018-05-26T13:26:29.963Z,33.59
2018-05-26T13:28:57.408Z,33.67
2018-05-26T13:31:25.294Z,33.62
2018-05-26T13:33:54.385Z,33.23
2018-05-26T13:36:21.924Z,33.23
2018-05-26T13:38:49.533Z,33.24
2018-05-26T13:41:17.050Z,33.03
2018-05-26T13:43:44.547Z,32.95
2018-05-26T13:46:12.693Z,32.69
2018-05-26T13:48:40.261Z,32.87
2018-05-26T13:51:08.227Z,32.87
2018-05-26T13:53:35.767Z,33.00
2018-05-26T13:56:03.374Z,33.02
2018-05-26T13:58:30.997Z,32.94
2018-05-26T14:00:58.833Z,32.91
2018-05-26T14:03:26.602Z,32.65
2018-05-26T14:05:54.158Z,32.57
2018-05-26T14:08:21.711Z,32.15
2018-05-26T14:10:49.366Z,32.18
2018-05-26T14:13:17.266Z,32.01
2018-05-26T14:15:44.973Z,32.00
2018-05-26T14:18:13.289Z,31.91
2018-05-26T14:20:40.788Z,31.88
2018-05-26T14:23:08.371Z,31.43
2018-05-26T14:25:36.076Z,31.76
2018-05-26T14:28:03.701Z,31.76
2018-05-26T14:30:31.421Z,31.80
2018-05-26T14:32:59.155Z,31.77
2018-05-26T14:35:26.902Z,31.69
2018-05-26T14:37:54.425Z,31.77
2018-05-26T14:40:22.038Z,31.96
2018-05-26T14:42:50.282Z,31.62
2018-05-26T14:45:17.841Z,31.31
2018-05-26T14:47:45.378Z,30.98
2018-05-26T14:50:12.958Z,30.56
2018-05-26T14:52:40.412Z,30.05
2018-05-26T14:55:07.968Z,29.82
2018-05-26T14:57:35.588Z,29.44
2018-05-26T15:00:03.235Z,28.98
2018-05-26T15:02:30.929Z,28.57
2018-05-26T15:04:58.628Z,28.09
2018-05-26T15:07:26.257Z,27.75
2018-05-26T15:09:53.862Z,27.61
2018-05-26T15:12:21.734Z,27.41
2018-05-26T15:14:50.143Z,27.45
2018-05-26T15:17:17.678Z,27.70
2018-05-26T15:19:45.537Z,27.87
2018-05-26T15:22:13.218Z,27.95
2018-05-26T15:24:41.072Z,28.09
2018-05-26T15:27:08.641Z,28.18
2018-05-26T15:29:36.288Z,28.14
2018-05-26T15:32:04.018Z,28.05
2018-05-26T15:34:31.543Z,27.73
2018-05-26T15:36:59.353Z,27.58
2018-05-26T15:39:26.952Z,27.63
2018-05-26T15:41:54.668Z,27.48
2018-05-26T15:44:22.291Z,27.19
2018-05-26T15:46:49.778Z,27.18
2018-05-26T15:49:17.307Z,27.13
2018-05-26T15:51:44.933Z,27.15
2018-05-26T15:54:12.468Z,27.21
2018-05-26T15:56:40.561Z,27.21
2018-05-26T15:59:08.069Z,27.23
2018-05-26T16:01:35.609Z,27.00
2018-05-26T16:04:03.273Z,26.75
2018-05-26T16:06:30.857Z,26.67
2018-05-26T16:08:58.406Z,26.73
2018-05-26T16:11:26.042Z,26.11
2018-05-26T16:13:53.672Z,26.04
2018-05-26T16:16:21.501Z,26.15
2018-05-26T16:18:49.072Z,26.29
2018-05-26T16:21:17.232Z,26.42
2018-05-26T16:23:45.342Z,26.41
2018-05-26T16:26:13.039Z,26.43
2018-05-26T16:28:40.525Z,26.23
2018-05-26T16:31:08.069Z,25.92
2018-05-26T16:33:35.690Z,25.86
2018-05-26T16:36:03.163Z,26.04
2018-05-26T16:38:30.626Z,25.42
2018-05-26T16:40:59.037Z,25.29
2018-05-26T16:43:26.685Z,25.17
2018-05-26T16:45:54.692Z,25.41
2018-05-26T16:48:22.311Z,25.64
2018-05-26T16:50:49.773Z,25.53
2018-05-26T16:53:17.436Z,25.64
2018-05-26T16:55:45.067Z,25.89
2018-05-26T16:58:12.574Z,26.02
2018-05-26T17:00:40.052Z,26.10
2018-05-26T17:03:07.667Z,26.28
2018-05-26T17:05:35.289Z,26.30
2018-05-26T17:08:02.748Z,26.19
2018-05-26T17:10:30.434Z,26.08
2018-05-26T17:12:58.262Z,25.90
2018-05-26T17:15:26.415Z,26.13
2018-05-26T17:17:54.054Z,26.25
2018-05-26T17:20:21.908Z,26.21
2018-05-26T17:22:49.384Z,26.00
2018-05-26T17:25:16.995Z,25.69
2018-05-26T17:27:44.429Z,25.61
2018-05-26T17:30:12.394Z,25.50
2018-05-26T17:32:40.604Z,25.20
2018-05-26T17:35:08.218Z,25.13
2018-05-26T17:37:35.688Z,24.80
2018-05-26T17:40:03.172Z,24.65
2018-05-26T17:42:30.782Z,24.82
2018-05-26T17:44:58.557Z,24.83
2018-05-26T17:47:26.189Z,24.80
2018-05-26T17:49:54.004Z,24.73
2018-05-26T17:52:21.695Z,24.51
2018-05-26T17:54:49.293Z,24.43
2018-05-26T17:57:16.738Z,24.61
2018-05-26T17:59:44.205Z,24.67
2018-05-26T18:02:11.938Z,24.69
2018-05-26T18:04:39.403Z,24.64
2018-05-26T18:07:06.917Z,24.65
2018-05-26T18:09:34.474Z,24.68
2018-05-26T18:12:01.952Z,24.64
2018-05-26T18:14:29.408Z,24.62
2018-05-26T18:16:56.999Z,24.47
2018-05-26T18:19:24.655Z,24.47
2018-05-26T18:21:52.152Z,24.32
2018-05-26T18:24:19.634Z,24.33
2018-05-26T18:26:47.236Z,24.34
2018-05-26T18:29:14.899Z,24.26
2018-05-26T18:31:42.535Z,24.19
2018-05-26T18:34:10.869Z,24.11
2018-05-26T18:36:39.121Z,24.13
2018-05-26T18:39:06.997Z,24.08
2018-05-26T18:41:34.517Z,23.89
2018-05-26T18:44:02.016Z,23.74
2018-05-26T18:46:29.495Z,23.63
2018-05-26T18:48:57.685Z,23.53
2018-05-26T18:51:25.268Z,23.43
2018-05-26T18:53:52.956Z,23.30
2018-05-26T18:56:20.624Z,23.24
2018-05-26T18:58:48.091Z,23.05
2018-05-26T19:01:15.675Z,22.87
2018-05-26T19:03:43.340Z,22.73
2018-05-26T19:06:10.940Z,22.62
2018-05-26T19:08:38.723Z,22.53
2018-05-26T19:11:06.348Z,22.47
2018-05-26T19:13:34.025Z,22.32
2018-05-26T19:16:01.971Z,22.15
2018-05-26T19:18:29.509Z,22.01
2018-05-26T19:20:57.067Z,21.98
2018-05-26T19:23:25.483Z,21.81
2018-05-26T19:25:52.989Z,21.77
2018-05-26T19:28:20.555Z,21.75
2018-05-26T19:30:48.510Z,21.64
2018-05-26T19:33:16.325Z,21.52
2018-05-26T19:35:43.889Z,21.44
2018-05-26T19:38:11.466Z,21.29
2018-05-26T19:40:39.174Z,21.19
2018-05-26T19:43:06.744Z,21.13
2018-05-26T19:45:34.298Z,21.02
2018-05-26T19:48:02.364Z,20.74
2018-05-26T19:50:29.838Z,20.82
2018-05-26T19:52:57.607Z,20.70
2018-05-26T19:55:25.099Z,20.64
2018-05-26T19:57:52.608Z,20.69
2018-05-26T20:00:21.491Z,20.61
2018-05-26T20:02:49.086Z,20.50
2018-05-26T20:05:16.961Z,20.38
2018-05-26T20:07:43.953Z,20.29
2018-05-26T20:10:11.095Z,20.23
2018-05-26T20:12:38.226Z,20.14
2018-05-26T20:15:05.929Z,20.02
2018-05-26T20:17:33.379Z,19.91
2018-05-26T20:20:01.010Z,19.72
2018-05-26T20:22:28.675Z,19.64
2018-05-26T20:24:56.279Z,19.66
2018-05-26T20:27:23.781Z,19.72
2018-05-26T20:29:52.061Z,19.71
2018-05-26T20:32:19.861Z,19.62
2018-05-26T20:34:47.344Z,19.59
2018-05-26T20:37:14.847Z,19.44
2018-05-26T20:39:42.370Z,19.31
2018-05-26T20:42:09.991Z,19.20
2018-05-26T20:44:37.471Z,19.22
2018-05-26T20:47:05.261Z,19.23
2018-05-26T20:49:32.847Z,19.03
2018-05-26T20:52:00.365Z,19.13
2018-05-26T20:54:28.055Z,19.00
2018-05-26T20:56:55.615Z,18.83
2018-05-26T20:59:23.147Z,18.80
2018-05-26T21:01:51.615Z,18.67
2018-05-26T21:04:19.357Z,18.51
2018-05-26T21:06:47.353Z,18.43
2018-05-26T21:09:14.969Z,18.35
2018-05-26T21:11:42.526Z,18.35
2018-05-26T21:14:10.160Z,18.40
2018-05-26T21:16:37.665Z,18.38
2018-05-26T21:19:05.711Z,18.28
2018-05-26T21:21:33.296Z,18.25
2018-05-26T21:24:00.992Z,18.22
2018-05-26T21:26:28.621Z,18.30
2018-05-26T21:28:56.093Z,18.21
2018-05-26T21:31:23.699Z,18.02
2018-05-26T21:33:51.367Z,18.00
2018-05-26T21:36:19.566Z,17.94
2018-05-26T21:38:47.086Z,17.87
2018-05-26T21:41:14.959Z,17.80
2018-05-26T21:43:42.586Z,17.81
2018-05-26T21:46:10.181Z,17.70
2018-05-26T21:48:37.844Z,17.57
2018-05-26T21:51:05.374Z,17.52
2018-05-26T21:53:33.239Z,17.51
2018-05-26T21:56:00.766Z,17.50
2018-05-26T21:58:28.501Z,17.34
2018-05-26T22:00:56.132Z,17.21
2018-05-26T22:03:24.045Z,17.13
2018-05-26T22:05:51.972Z,17.17
2018-05-26T22:08:19.431Z,17.15
2018-05-26T22:10:46.923Z,17.07
2018-05-26T22:13:14.561Z,17.02
2018-05-26T22:15:42.659Z,16.90
2018-05-26T22:18:10.297Z,16.88
2018-05-26T22:20:37.756Z,16.99
2018-05-26T22:23:05.324Z,17.01
2018-05-26T22:25:32.990Z,16.92
2018-05-26T22:28:00.510Z,16.84
2018-05-26T22:30:28.047Z,16.76
2018-05-26T22:32:55.731Z,16.70
2018-05-26T22:35:23.291Z,16.74
2018-05-26T22:37:50.859Z,16.75
2018-05-26T22:40:19.371Z,16.58
2018-05-26T22:42:47.066Z,16.52
2018-05-26T22:45:14.755Z,16.49
2018-05-26T22:47:42.284Z,16.42
2018-05-26T22:50:09.896Z,16.33
2018-05-26T22:52:37.573Z,16.33
2018-05-26T22:55:05.093Z,16.30
2018-05-26T22:57:33.180Z,16.28
2018-05-26T23:00:00.667Z,16.26
2018-05-26T23:02:28.142Z,16.31
2018-05-26T23:04:55.611Z,16.27
2018-05-26T23:07:23.225Z,16.31
2018-05-26T23:09:50.892Z,16.34
2018-05-26T23:12:18.375Z,16.41
2018-05-26T23:14:46.649Z,16.37
2018-05-26T23:17:14.186Z,16.41
2018-05-26T23:19:41.815Z,16.38
2018-05-26T23:22:09.286Z,16.34
2018-05-26T23:24:36.980Z,16.23
2018-05-26T23:27:04.432Z,16.11
2018-05-26T23:29:31.941Z,16.07
2018-05-26T23:31:59.521Z,16.06
2018-05-26T23:34:27.015Z,16.09
2018-05-26T23:36:54.625Z,16.05
2018-05-26T23:39:22.159Z,15.96
2018-05-26T23:41:49.877Z,15.87
2018-05-26T23:44:18.222Z,15.73
2018-05-26T23:46:45.904Z,15.73
2018-05-26T23:49:13.782Z,15.78
2018-05-26T23:51:41.476Z,15.78
2018-05-26T23:54:09.020Z,15.79
2018-05-26T23:56:36.672Z,15.71
2018-05-26T23:59:04.603Z,15.72
